createdAt,value
2017-12-29T00:01:19.744Z,3.42
2017-12-29T00:02:41.735Z,3.57
2017-12-29T00:04:03.626Z,3.69
2017-12-29T00:05:25.776Z,3.65
2017-12-29T00:06:47.750Z,3.73
2017-12-29T00:08:09.689Z,3.79
2017-12-29T00:09:30.913Z,3.86
2017-12-29T00:10:53.076Z,3.84
2017-12-29T00:12:14.778Z,3.79
2017-12-29T00:13:36.810Z,3.84
2017-12-29T00:14:58.765Z,3.88
2017-12-29T00:16:20.729Z,3.93
2017-12-29T00:17:42.605Z,4
2017-12-29T00:19:04.587Z,3.88
2017-12-29T00:20:26.864Z,3.87
2017-12-29T00:21:48.653Z,3.84
2017-12-29T00:23:09.990Z,3.83
2017-12-29T00:24:32.173Z,3.76
2017-12-29T00:25:54.054Z,3.84
2017-12-29T00:27:16.174Z,3.76
2017-12-29T00:28:38.326Z,3.78
2017-12-29T00:29:59.651Z,3.8
2017-12-29T00:31:21.508Z,3.73
2017-12-29T00:32:43.726Z,3.83
2017-12-29T00:34:05.579Z,3.86
2017-12-29T00:35:27.355Z,3.87
2017-12-29T00:36:49.484Z,3.87
2017-12-29T00:38:11.088Z,3.94
2017-12-29T00:39:32.956Z,3.98
2017-12-29T00:40:55.233Z,4.05
2017-12-29T00:42:17.203Z,4.09
2017-12-29T00:43:39.084Z,4.15
2017-12-29T00:45:00.723Z,4.16
2017-12-29T00:46:22.845Z,4.11
2017-12-29T00:47:44.952Z,4.08
2017-12-29T00:49:06.685Z,3.96
2017-12-29T00:50:28.033Z,3.96
2017-12-29T00:51:49.987Z,3.96
2017-12-29T00:53:11.587Z,4
2017-12-29T00:54:33.477Z,3.94
2017-12-29T00:55:55.390Z,4.08
2017-12-29T00:57:16.770Z,4.08
2017-12-29T00:58:38.399Z,4.09
2017-12-29T01:00:00.458Z,4.18
2017-12-29T01:01:22.396Z,4.24
2017-12-29T01:02:44.372Z,4.26
2017-12-29T01:04:05.708Z,4.27
2017-12-29T01:05:27.309Z,4.24
2017-12-29T01:06:48.464Z,4.23
2017-12-29T01:08:10.302Z,4.18
2017-12-29T01:09:32.437Z,4.29
2017-12-29T01:10:54.044Z,4.18
2017-12-29T01:12:15.885Z,4.24
2017-12-29T01:13:37.754Z,4.23
2017-12-29T01:14:59.723Z,4.32
2017-12-29T01:16:21.656Z,4.3
2017-12-29T01:17:43.788Z,4.24
2017-12-29T01:19:05.736Z,4.24
2017-12-29T01:20:27.853Z,4.18
2017-12-29T01:21:49.997Z,4.05
2017-12-29T01:23:11.606Z,4.12
2017-12-29T01:24:33.487Z,3.97
2017-12-29T01:25:55.787Z,4.05
2017-12-29T01:27:17.891Z,4.05
2017-12-29T01:28:39.764Z,4.05
2017-12-29T01:30:01.781Z,4.09
2017-12-29T01:31:23.906Z,4.06
2017-12-29T01:32:45.746Z,4.06
2017-12-29T01:34:07.987Z,4.05
2017-12-29T01:35:29.573Z,3.98
2017-12-29T01:36:50.909Z,3.97
2017-12-29T01:38:12.806Z,4.02
2017-12-29T01:39:34.404Z,4.05
2017-12-29T01:40:56.509Z,3.96
2017-12-29T01:42:18.105Z,4.04
2017-12-29T01:43:39.968Z,4.09
2017-12-29T01:45:01.889Z,4.11
2017-12-29T01:46:23.742Z,4.06
2017-12-29T01:47:45.754Z,4.06
2017-12-29T01:49:07.379Z,3.96
2017-12-29T01:50:29.234Z,4.02
2017-12-29T01:51:50.570Z,3.96
2017-12-29T01:53:12.689Z,3.9
2017-12-29T01:54:35.028Z,3.94
2017-12-29T01:55:56.124Z,3.93
2017-12-29T01:57:17.976Z,4
2017-12-29T01:58:39.896Z,4.05
2017-12-29T02:00:01.724Z,4.05
2017-12-29T02:01:23.845Z,4.14
2017-12-29T02:02:45.965Z,4.26
2017-12-29T02:04:07.834Z,4.36
2017-12-29T02:05:29.433Z,4.32
2017-12-29T02:06:51.165Z,4.34
2017-12-29T02:08:13.303Z,4.36
2017-12-29T02:09:35.407Z,4.34
2017-12-29T02:10:56.878Z,4.41
2017-12-29T02:12:18.727Z,4.33
2017-12-29T02:13:40.440Z,4.3
2017-12-29T02:15:01.778Z,4.37
2017-12-29T02:16:23.658Z,4.3
2017-12-29T02:17:45.258Z,4.34
2017-12-29T02:19:06.739Z,4.36
2017-12-29T02:20:28.672Z,4.36
2017-12-29T02:21:50.358Z,4.45
2017-12-29T02:23:12.465Z,4.45
2017-12-29T02:24:34.446Z,4.47
2017-12-29T02:25:55.792Z,4.42
2017-12-29T02:27:17.649Z,4.48
2017-12-29T02:28:39.525Z,4.41
2017-12-29T02:30:01.640Z,4.33
2017-12-29T02:31:23.498Z,4.33
2017-12-29T02:32:45.144Z,4.3
2017-12-29T02:34:06.984Z,4.41
2017-12-29T02:35:28.875Z,4.37
2017-12-29T02:36:50.996Z,4.37
2017-12-29T02:38:12.705Z,4.44
2017-12-29T02:39:34.545Z,4.41
2017-12-29T02:40:56.406Z,4.48
2017-12-29T02:42:17.794Z,4.54
2017-12-29T02:43:39.416Z,4.6
2017-12-29T02:45:00.754Z,4.54
2017-12-29T02:46:22.627Z,4.58
2017-12-29T02:47:44.476Z,4.59
2017-12-29T02:49:06.604Z,4.55
2017-12-29T02:50:28.436Z,4.6
2017-12-29T02:51:50.295Z,4.54
2017-12-29T02:53:12.478Z,4.55
2017-12-29T02:54:34.326Z,4.52
2017-12-29T02:55:56.208Z,4.34
2017-12-29T02:57:18.315Z,4.33
2017-12-29T02:58:40.159Z,4.32
2017-12-29T03:00:01.996Z,4.11
2017-12-29T03:01:23.106Z,4.08
2017-12-29T03:02:44.941Z,4.18
2017-12-29T03:04:06.520Z,4.16
2017-12-29T03:05:28.124Z,4.29
2017-12-29T03:06:50.310Z,4.24
2017-12-29T03:08:11.714Z,4.32
2017-12-29T03:09:33.095Z,4.36
2017-12-29T03:10:55.184Z,4.44
2017-12-29T03:12:16.806Z,4.44
2017-12-29T03:13:38.667Z,4.52
2017-12-29T03:15:00.504Z,4.51
2017-12-29T03:16:22.355Z,4.48
2017-12-29T03:17:43.945Z,4.5
2017-12-29T03:19:06.076Z,4.55
2017-12-29T03:20:27.456Z,4.59
2017-12-29T03:21:49.325Z,4.59
2017-12-29T03:23:11.428Z,4.66
2017-12-29T03:24:33.165Z,4.67
2017-12-29T03:25:55.064Z,4.67
2017-12-29T03:27:16.484Z,4.73
2017-12-29T03:28:38.336Z,4.67
2017-12-29T03:30:00.310Z,4.75
2017-12-29T03:31:22.185Z,4.72
2017-12-29T03:32:43.515Z,4.7
2017-12-29T03:34:05.748Z,4.65
2017-12-29T03:35:27.715Z,4.69
2017-12-29T03:36:49.920Z,4.66
2017-12-29T03:38:11.310Z,4.54
2017-12-29T03:39:33.165Z,4.65
2017-12-29T03:40:55.277Z,4.63
2017-12-29T03:42:17.398Z,4.65
2017-12-29T03:43:39.527Z,4.63
2017-12-29T03:45:01.145Z,4.63
2017-12-29T03:46:23.055Z,4.62
2017-12-29T03:47:44.899Z,4.62
2017-12-29T03:49:06.504Z,4.66
2017-12-29T03:50:28.087Z,4.65
2017-12-29T03:51:50.228Z,4.65
2017-12-29T03:53:11.852Z,4.59
2017-12-29T03:54:33.466Z,4.55
2017-12-29T03:55:55.316Z,4.6
2017-12-29T03:57:17.426Z,4.52
2017-12-29T03:58:39.014Z,4.51
2017-12-29T04:00:00.601Z,4.6
2017-12-29T04:01:22.765Z,4.6
2017-12-29T04:02:44.352Z,4.6
2017-12-29T04:04:06.185Z,4.58
2017-12-29T04:05:28.165Z,4.59
2017-12-29T04:06:49.514Z,4.6
2017-12-29T04:08:11.689Z,4.5
2017-12-29T04:09:32.772Z,4.62
2017-12-29T04:10:54.408Z,4.58
2017-12-29T04:12:16.253Z,4.6
2017-12-29T04:13:37.852Z,4.54
2017-12-29T04:14:59.688Z,4.58
2017-12-29T04:16:21.018Z,4.51
2017-12-29T04:17:42.901Z,4.52
2017-12-29T04:19:04.515Z,4.62
2017-12-29T04:20:26.427Z,4.51
2017-12-29T04:21:48.032Z,4.58
2017-12-29T04:23:10.238Z,4.51
2017-12-29T04:24:31.837Z,4.55
2017-12-29T04:25:53.985Z,4.51
2017-12-29T04:27:15.317Z,4.44
2017-12-29T04:28:37.175Z,4.22
2017-12-29T04:29:59.029Z,4.11
2017-12-29T04:31:21.257Z,4.04
2017-12-29T04:32:43.112Z,3.97
2017-12-29T04:34:04.236Z,3.87
2017-12-29T04:35:25.841Z,3.73
2017-12-29T04:36:47.448Z,3.79
2017-12-29T04:38:09.365Z,3.79
2017-12-29T04:39:30.958Z,3.75
2017-12-29T04:40:52.885Z,3.86
2017-12-29T04:42:14.773Z,3.94
2017-12-29T04:43:36.695Z,4.04
2017-12-29T04:44:58.036Z,4.09
2017-12-29T04:46:19.884Z,4.06
2017-12-29T04:47:41.734Z,4.05
2017-12-29T04:49:03.125Z,4.18
2017-12-29T04:50:24.874Z,4.06
2017-12-29T04:51:46.737Z,4.11
2017-12-29T04:53:07.868Z,4.22
2017-12-29T04:54:29.717Z,4.14
2017-12-29T04:55:51.305Z,4.09
2017-12-29T04:57:13.357Z,4.09
2017-12-29T04:58:34.689Z,3.98
2017-12-29T04:59:56.835Z,3.96
2017-12-29T05:01:18.687Z,3.8
2017-12-29T05:02:40.325Z,3.69
2017-12-29T05:04:01.662Z,3.51
2017-12-29T05:05:23.868Z,3.42
2017-12-29T05:06:45.541Z,3.26
2017-12-29T05:08:07.150Z,3.28
2017-12-29T05:09:29.441Z,3.23
2017-12-29T05:10:51.288Z,3.21
2017-12-29T05:12:13.456Z,3.11
2017-12-29T05:13:35.065Z,3.15
2017-12-29T05:14:56.936Z,3.21
2017-12-29T05:16:18.782Z,3.18
2017-12-29T05:17:40.786Z,3.26
2017-12-29T05:19:02.626Z,3.32
2017-12-29T05:20:24.036Z,3.39
2017-12-29T05:21:45.625Z,3.36
2017-12-29T05:23:07.495Z,3.43
2017-12-29T05:24:28.570Z,3.57
2017-12-29T05:25:50.417Z,3.55
2017-12-29T05:27:12.003Z,3.6
2017-12-29T05:28:33.606Z,3.55
2017-12-29T05:29:54.938Z,3.6
2017-12-29T05:31:16.849Z,3.5
2017-12-29T05:32:38.706Z,3.45
2017-12-29T05:33:59.538Z,3.4
2017-12-29T05:35:21.394Z,3.48
2017-12-29T05:36:43.078Z,3.52
2017-12-29T05:38:04.997Z,3.36
2017-12-29T05:39:26.572Z,3.32
2017-12-29T05:40:47.910Z,3.32
2017-12-29T05:42:09.815Z,3.36
2017-12-29T05:43:31.215Z,3.2
2017-12-29T05:44:52.547Z,3.05
2017-12-29T05:46:14.400Z,2.92
2017-12-29T05:47:36.247Z,2.93
2017-12-29T05:48:58.103Z,2.93
2017-12-29T05:50:19.700Z,2.93
2017-12-29T05:51:41.085Z,2.82
2017-12-29T05:53:02.467Z,2.82
2017-12-29T05:54:24.305Z,2.85
2017-12-29T05:55:45.369Z,2.82
2017-12-29T05:57:06.446Z,2.81
2017-12-29T05:58:28.201Z,2.84
2017-12-29T05:59:49.076Z,2.92
2017-12-29T06:01:11.187Z,2.97
2017-12-29T06:02:33.044Z,3.13
2017-12-29T06:03:54.525Z,3.17
2017-12-29T06:05:16.156Z,3.18
2017-12-29T06:06:38.016Z,3.33
2017-12-29T06:07:59.915Z,3.36
2017-12-29T06:09:21.893Z,3.33
2017-12-29T06:10:43.742Z,3.31
2017-12-29T06:12:05.598Z,3.29
2017-12-29T06:13:27.478Z,3.4
2017-12-29T06:14:49.328Z,3.33
2017-12-29T06:16:11.198Z,3.21
2017-12-29T06:17:32.759Z,3.17
2017-12-29T06:18:54.107Z,3.17
2017-12-29T06:20:15.974Z,3.17
2017-12-29T06:21:37.342Z,2.99
2017-12-29T06:22:59.282Z,3
2017-12-29T06:24:20.347Z,3
2017-12-29T06:25:41.664Z,3
2017-12-29T06:27:03.267Z,3.08
2017-12-29T06:28:25.507Z,3.18
2017-12-29T06:29:46.836Z,3.03
2017-12-29T06:31:08.953Z,3.13
2017-12-29T06:32:30.940Z,3.08
2017-12-29T06:33:52.513Z,3.13
2017-12-29T06:35:14.663Z,3.13
2017-12-29T06:36:36.646Z,3.06
2017-12-29T06:37:58.930Z,3.03
2017-12-29T06:39:21.032Z,3.06
2017-12-29T06:40:42.890Z,3.1
2017-12-29T06:42:04.468Z,3.2
2017-12-29T06:43:25.537Z,3.2
2017-12-29T06:44:47.515Z,3.24
2017-12-29T06:46:09.584Z,3.31
2017-12-29T06:47:31.504Z,3.33
2017-12-29T06:48:53.403Z,3.35
2017-12-29T06:50:14.999Z,3.36
2017-12-29T06:51:36.713Z,3.4
2017-12-29T06:52:58.693Z,3.32
2017-12-29T06:54:20.521Z,3.43
2017-12-29T06:55:41.873Z,3.4
2017-12-29T06:57:03.463Z,3.47
2017-12-29T06:58:25.063Z,3.51
2017-12-29T06:59:46.912Z,3.54
2017-12-29T07:01:09.122Z,3.55
2017-12-29T07:02:30.702Z,3.52
2017-12-29T07:03:52.579Z,3.55
2017-12-29T07:05:13.968Z,3.55
2017-12-29T07:06:35.810Z,3.61
2017-12-29T07:07:57.931Z,3.65
2017-12-29T07:09:19.525Z,3.6
2017-12-29T07:10:40.855Z,3.7
2017-12-29T07:12:02.454Z,3.69
2017-12-29T07:13:24.029Z,3.62
2017-12-29T07:14:45.604Z,3.65
2017-12-29T07:16:07.788Z,3.65
2017-12-29T07:17:29.709Z,3.61
2017-12-29T07:18:51.543Z,3.7
2017-12-29T07:20:13.253Z,3.61
2017-12-29T07:21:34.844Z,3.69
2017-12-29T07:22:57.036Z,3.69
2017-12-29T07:24:19.144Z,3.62
2017-12-29T07:25:40.732Z,3.66
2017-12-29T07:27:02.053Z,3.61
2017-12-29T07:28:23.905Z,3.55
2017-12-29T07:29:45.014Z,3.62
2017-12-29T07:31:06.639Z,3.65
2017-12-29T07:32:28.772Z,3.61
2017-12-29T07:33:50.640Z,3.68
2017-12-29T07:35:12.622Z,3.58
2017-12-29T07:36:34.726Z,3.6
2017-12-29T07:37:56.352Z,3.62
2017-12-29T07:39:18.453Z,3.68
2017-12-29T07:40:40.344Z,3.6
2017-12-29T07:42:02.468Z,3.61
2017-12-29T07:43:24.600Z,3.73
2017-12-29T07:44:46.463Z,3.66
2017-12-29T07:46:08.063Z,3.6
2017-12-29T07:47:29.978Z,3.76
2017-12-29T07:48:52.095Z,3.73
2017-12-29T07:50:13.681Z,3.73
2017-12-29T07:51:35.332Z,3.61
2017-12-29T07:52:57.455Z,3.76
2017-12-29T07:54:19.588Z,3.7
2017-12-29T07:55:41.230Z,3.76
2017-12-29T07:57:02.933Z,3.72
2017-12-29T07:58:25.118Z,3.66
2017-12-29T07:59:46.745Z,3.66
2017-12-29T08:01:08.223Z,3.62
2017-12-29T08:02:29.566Z,3.76
2017-12-29T08:03:51.842Z,3.72
2017-12-29T08:05:13.770Z,3.79
2017-12-29T08:06:35.393Z,3.83
2017-12-29T08:07:57.264Z,3.75
2017-12-29T08:09:19.126Z,3.68
2017-12-29T08:10:41.296Z,3.65
2017-12-29T08:12:02.932Z,3.72
2017-12-29T08:13:24.566Z,3.69
2017-12-29T08:14:45.922Z,3.66
2017-12-29T08:16:07.246Z,3.69
2017-12-29T08:17:29.554Z,3.62
2017-12-29T08:18:51.145Z,3.58
2017-12-29T08:20:12.484Z,3.36
2017-12-29T08:21:34.647Z,3.4
2017-12-29T08:22:56.513Z,3.29
2017-12-29T08:24:18.153Z,3.21
2017-12-29T08:25:40.007Z,3.17
2017-12-29T08:27:01.593Z,3.18
2017-12-29T08:28:24.866Z,3.06
2017-12-29T08:29:46.744Z,2.92
2017-12-29T08:31:08.410Z,3.02
2017-12-29T08:32:30.026Z,2.85
2017-12-29T08:33:52.132Z,2.92
2017-12-29T08:35:14.340Z,2.79
2017-12-29T08:36:36.521Z,2.87
2017-12-29T08:37:58.124Z,2.82
2017-12-29T08:39:19.969Z,2.75
2017-12-29T08:40:41.572Z,2.79
2017-12-29T08:42:03.456Z,2.71
2017-12-29T08:43:25.330Z,2.71
2017-12-29T08:44:46.675Z,2.71
2017-12-29T08:46:08.789Z,2.69
2017-12-29T08:47:30.711Z,2.71
2017-12-29T08:48:52.634Z,2.67
2017-12-29T08:50:14.747Z,2.71
2017-12-29T08:51:36.921Z,2.74
2017-12-29T08:52:59.103Z,2.63
2017-12-29T08:54:21.266Z,2.56
2017-12-29T08:55:43.493Z,2.56
2017-12-29T08:57:05.090Z,2.56
2017-12-29T08:58:27.202Z,2.6
2017-12-29T08:59:49.336Z,2.54
2017-12-29T09:01:10.958Z,2.49
2017-12-29T09:02:32.115Z,2.59
2017-12-29T09:03:53.784Z,2.61
2017-12-29T09:05:15.644Z,2.63
2017-12-29T09:06:37.239Z,2.75
2017-12-29T09:07:59.091Z,2.77
2017-12-29T09:09:21.053Z,2.82
2017-12-29T09:10:43.228Z,2.85
2017-12-29T09:12:04.820Z,2.89
2017-12-29T09:13:26.718Z,2.84
2017-12-29T09:14:48.993Z,2.79
2017-12-29T09:16:10.921Z,2.75
2017-12-29T09:17:33.070Z,2.75
2017-12-29T09:18:54.680Z,2.81
2017-12-29T09:20:16.842Z,2.71
2017-12-29T09:21:38.974Z,2.71
2017-12-29T09:23:01.103Z,2.71
2017-12-29T09:24:22.685Z,2.72
2017-12-29T09:25:44.664Z,2.74
2017-12-29T09:27:06.094Z,2.79
2017-12-29T09:28:27.972Z,2.82
2017-12-29T09:29:49.316Z,2.79
2017-12-29T09:31:10.651Z,2.79
2017-12-29T09:32:32.552Z,2.75
2017-12-29T09:33:54.697Z,2.71
2017-12-29T09:35:16.812Z,2.71
2017-12-29T09:36:38.476Z,2.75
2017-12-29T09:38:00.767Z,2.82
2017-12-29T09:39:22.634Z,2.82
2017-12-29T09:40:44.497Z,2.92
2017-12-29T09:42:06.093Z,2.92
2017-12-29T09:43:27.976Z,2.9
2017-12-29T09:44:50.007Z,2.9
2017-12-29T09:46:12.118Z,2.99
2017-12-29T09:47:34.045Z,3.02
2017-12-29T09:48:55.630Z,2.99
2017-12-29T09:50:17.854Z,2.95
2017-12-29T09:51:39.721Z,3.05
2017-12-29T09:53:01.555Z,3
2017-12-29T09:54:22.885Z,3
2017-12-29T09:55:45.049Z,3.1
2017-12-29T09:57:06.659Z,3.06
2017-12-29T09:58:28.514Z,3.08
2017-12-29T09:59:50.157Z,3.17
2017-12-29T10:01:11.757Z,3.23
2017-12-29T10:02:33.104Z,3.2
2017-12-29T10:03:54.949Z,3.31
2017-12-29T10:05:16.557Z,3.33
2017-12-29T10:06:38.436Z,3.4
2017-12-29T10:08:00.660Z,3.47
2017-12-29T10:09:22.253Z,3.5
2017-12-29T10:10:44.103Z,3.55
2017-12-29T10:12:05.444Z,3.69
2017-12-29T10:13:27.286Z,3.73
2017-12-29T10:14:49.153Z,3.91
2017-12-29T10:16:11.015Z,3.97
2017-12-29T10:17:32.516Z,3.98
2017-12-29T10:18:54.655Z,4.02
2017-12-29T10:20:16.507Z,4
2017-12-29T10:21:38.095Z,3.97
2017-12-29T10:22:59.956Z,4.11
2017-12-29T10:24:22.093Z,4.02
2017-12-29T10:25:43.468Z,4.04
2017-12-29T10:27:05.115Z,3.97
2017-12-29T10:28:26.970Z,3.91
2017-12-29T10:29:48.379Z,3.94
2017-12-29T10:31:10.214Z,3.93
2017-12-29T10:32:31.816Z,3.97
2017-12-29T10:33:54.934Z,3.9
2017-12-29T10:35:16.846Z,3.93
2017-12-29T10:36:38.978Z,4.04
2017-12-29T10:38:00.574Z,4.09
2017-12-29T10:39:22.213Z,4.16
2017-12-29T10:40:44.238Z,4.12
2017-12-29T10:42:06.313Z,4.24
2017-12-29T10:43:28.485Z,4.29
2017-12-29T10:44:50.124Z,4.36
2017-12-29T10:46:11.465Z,4.36
2017-12-29T10:47:33.588Z,4.44
2017-12-29T10:48:55.816Z,4.42
2017-12-29T10:50:18.038Z,4.42
2017-12-29T10:51:39.383Z,4.36
2017-12-29T10:53:01.252Z,4.37
2017-12-29T10:54:23.107Z,4.33
2017-12-29T10:55:45.444Z,4.3
2017-12-29T10:57:07.820Z,4.34
2017-12-29T10:58:29.679Z,4.36
2017-12-29T10:59:51.293Z,4.24
2017-12-29T11:01:13.275Z,4.24
2017-12-29T11:02:35.397Z,4.24
2017-12-29T11:03:57.563Z,4.26
2017-12-29T11:05:19.415Z,4.24
2017-12-29T11:06:41.324Z,4.18
2017-12-29T11:08:03.455Z,4.15
2017-12-29T11:09:25.342Z,4.18
2017-12-29T11:10:47.214Z,4.24
2017-12-29T11:12:09.358Z,4.22
2017-12-29T11:13:31.138Z,4.24
2017-12-29T11:14:53.020Z,4.26
2017-12-29T11:16:14.870Z,4.26
2017-12-29T11:17:36.474Z,4.22
2017-12-29T11:18:58.651Z,4.34
2017-12-29T11:20:20.265Z,4.22
2017-12-29T11:21:42.544Z,4.33
2017-12-29T11:23:04.696Z,4.32
2017-12-29T11:24:26.556Z,4.36
2017-12-29T11:25:48.835Z,4.3
2017-12-29T11:27:10.730Z,4.4
2017-12-29T11:28:32.355Z,4.4
2017-12-29T11:29:54.704Z,4.33
2017-12-29T11:31:16.856Z,4.34
2017-12-29T11:32:38.722Z,4.4
2017-12-29T11:34:00.874Z,4.4
2017-12-29T11:35:23.011Z,4.34
2017-12-29T11:36:44.886Z,4.41
2017-12-29T11:38:06.047Z,4.42
2017-12-29T11:39:28.060Z,4.41
2017-12-29T11:40:49.932Z,4.47
2017-12-29T11:42:11.576Z,4.41
2017-12-29T11:43:33.263Z,4.47
2017-12-29T11:44:54.884Z,4.44
2017-12-29T11:46:16.613Z,4.42
2017-12-29T11:47:38.773Z,4.47
2017-12-29T11:49:00.894Z,4.47
2017-12-29T11:50:22.570Z,4.48
2017-12-29T11:51:44.166Z,4.51
2017-12-29T11:53:06.330Z,4.48
2017-12-29T11:54:28.453Z,4.51
2017-12-29T11:55:49.808Z,4.48
2017-12-29T11:57:11.949Z,4.5
2017-12-29T11:58:34.122Z,4.55
2017-12-29T11:59:55.987Z,4.48
2017-12-29T12:01:18.000Z,4.5
2017-12-29T12:02:40.263Z,4.37
2017-12-29T12:04:01.876Z,4.34
2017-12-29T12:05:24.026Z,4.34
2017-12-29T12:06:45.637Z,4.34
2017-12-29T12:08:07.833Z,4.34
2017-12-29T12:09:29.934Z,4.34
2017-12-29T12:10:52.115Z,4.4
2017-12-29T12:12:13.779Z,4.4
2017-12-29T12:13:35.393Z,4.45
2017-12-29T12:14:57.304Z,4.4
2017-12-29T12:16:19.443Z,4.41
2017-12-29T12:17:41.104Z,4.37
2017-12-29T12:19:02.944Z,4.42
2017-12-29T12:20:24.874Z,4.4
2017-12-29T12:21:46.745Z,4.3
2017-12-29T12:23:08.992Z,4.33
2017-12-29T12:24:31.113Z,4.37
2017-12-29T12:25:53.222Z,4.47
2017-12-29T12:27:15.115Z,4.48
2017-12-29T12:28:36.995Z,4.47
2017-12-29T12:29:58.588Z,4.55
2017-12-29T12:31:20.233Z,4.58
2017-12-29T12:32:42.514Z,4.65
2017-12-29T12:34:04.633Z,4.73
2017-12-29T12:35:26.502Z,4.86
2017-12-29T12:36:48.374Z,4.86
2017-12-29T12:38:10.282Z,4.96
2017-12-29T12:39:32.154Z,5.18
2017-12-29T12:40:54.002Z,5.17
2017-12-29T12:42:15.615Z,5.31
2017-12-29T12:43:37.727Z,5.31
2017-12-29T12:44:59.350Z,5.42
2017-12-29T12:46:20.680Z,5.54
2017-12-29T12:47:42.284Z,5.56
2017-12-29T12:49:04.154Z,5.75
2017-12-29T12:50:26.150Z,5.65
2017-12-29T12:51:47.772Z,5.78
2017-12-29T12:53:09.638Z,5.71
2017-12-29T12:54:31.600Z,5.65
2017-12-29T12:55:53.485Z,5.63
2017-12-29T12:57:15.680Z,5.51
2017-12-29T12:58:37.816Z,5.45
2017-12-29T12:59:59.694Z,5.54
2017-12-29T13:01:21.356Z,5.33
2017-12-29T13:02:42.947Z,5.31
2017-12-29T13:04:04.545Z,5.22
2017-12-29T13:05:26.147Z,5.2
2017-12-29T13:06:48.013Z,5.15
2017-12-29T13:08:09.924Z,5.21
2017-12-29T13:09:31.528Z,5.22
2017-12-29T13:10:53.414Z,5.25
2017-12-29T13:12:15.020Z,5.24
2017-12-29T13:13:36.943Z,5.17
2017-12-29T13:14:58.944Z,5.21
2017-12-29T13:16:20.875Z,5.12
2017-12-29T13:17:42.886Z,5.02
2017-12-29T13:19:04.906Z,4.86
2017-12-29T13:20:26.954Z,4.86
2017-12-29T13:21:49.083Z,4.65
2017-12-29T13:23:10.893Z,4.65
2017-12-29T13:24:32.824Z,4.62
2017-12-29T13:25:54.733Z,4.51
2017-12-29T13:27:17.014Z,4.41
2017-12-29T13:28:39.018Z,4.42
2017-12-29T13:30:00.905Z,4.32
2017-12-29T13:31:23.033Z,4.32
2017-12-29T13:32:44.657Z,4.32
2017-12-29T13:34:06.516Z,4.22
2017-12-29T13:35:43.322Z,4.26
2017-12-29T13:37:05.214Z,4.11
2017-12-29T13:38:27.506Z,4.16
2017-12-29T13:39:49.683Z,4.22
2017-12-29T13:41:11.533Z,4.15
2017-12-29T13:42:33.824Z,4.15
2017-12-29T13:43:55.693Z,4.18
2017-12-29T13:45:17.606Z,4.15
2017-12-29T13:46:39.761Z,4.08
2017-12-29T13:48:01.901Z,4.11
2017-12-29T13:49:23.310Z,4.04
2017-12-29T13:50:45.190Z,4.04
2017-12-29T13:52:07.168Z,4.05
2017-12-29T13:53:29.293Z,4.09
2017-12-29T13:54:51.201Z,4.05
2017-12-29T13:56:13.122Z,4.09
2017-12-29T13:57:34.860Z,4.06
2017-12-29T13:58:56.824Z,4.09
2017-12-29T14:00:18.693Z,4.06
2017-12-29T14:01:40.845Z,4.09
2017-12-29T14:03:02.616Z,4.15
2017-12-29T14:04:24.763Z,4.16
2017-12-29T14:05:47.005Z,4.12
2017-12-29T14:07:09.206Z,4.15
2017-12-29T14:08:31.114Z,4.15
2017-12-29T14:09:53.254Z,4.27
2017-12-29T14:11:14.856Z,4.27
2017-12-29T14:12:36.736Z,4.2
2017-12-29T14:13:58.872Z,4.18
2017-12-29T14:15:21.014Z,4.2
2017-12-29T14:16:43.066Z,4.3
2017-12-29T14:18:05.184Z,4.3
2017-12-29T14:19:27.048Z,4.36
2017-12-29T14:20:48.937Z,4.4
2017-12-29T14:22:10.813Z,4.42
2017-12-29T14:23:32.966Z,4.47
2017-12-29T14:24:54.321Z,4.48
2017-12-29T14:26:15.675Z,4.52
2017-12-29T14:27:37.902Z,4.51
2017-12-29T14:29:00.036Z,4.51
2017-12-29T14:30:21.636Z,4.52
2017-12-29T14:31:43.237Z,4.51
2017-12-29T14:33:05.114Z,4.54
2017-12-29T14:34:26.257Z,4.55
2017-12-29T14:35:48.176Z,4.51
2017-12-29T14:37:10.325Z,4.51
2017-12-29T14:38:32.559Z,4.59
2017-12-29T14:39:54.726Z,4.54
2017-12-29T14:41:16.897Z,4.54
2017-12-29T14:42:37.978Z,4.5
2017-12-29T14:43:59.593Z,4.4
2017-12-29T14:45:21.460Z,4.42
2017-12-29T14:46:43.474Z,4.36
2017-12-29T14:48:05.323Z,4.32
2017-12-29T14:49:26.983Z,4.24
2017-12-29T14:50:49.125Z,4.12
2017-12-29T14:52:11.008Z,4.2
2017-12-29T14:53:33.137Z,4.23
2017-12-29T14:54:55.282Z,4.18
2017-12-29T14:56:17.194Z,4.05
2017-12-29T14:57:39.086Z,4.08
2017-12-29T14:59:00.701Z,4.08
2017-12-29T15:00:22.565Z,4.05
2017-12-29T15:01:44.488Z,3.93
2017-12-29T15:03:06.357Z,3.97
2017-12-29T15:04:28.254Z,3.88
2017-12-29T15:05:50.411Z,3.98
2017-12-29T15:07:12.319Z,4.02
2017-12-29T15:08:34.486Z,3.94
2017-12-29T15:09:56.637Z,3.97
2017-12-29T15:11:18.784Z,3.94
2017-12-29T15:12:40.377Z,3.94
2017-12-29T15:14:02.568Z,3.9
2017-12-29T15:15:24.687Z,3.87
2017-12-29T15:16:46.566Z,3.93
2017-12-29T15:18:08.447Z,3.98
2017-12-29T15:19:30.571Z,3.98
2017-12-29T15:20:52.507Z,4.02
2017-12-29T15:22:14.128Z,3.93
2017-12-29T15:23:35.868Z,3.94
2017-12-29T15:24:57.774Z,3.96
2017-12-29T15:26:20.116Z,4.11
2017-12-29T15:27:42.244Z,4.04
2017-12-29T15:29:04.117Z,4.02
2017-12-29T15:30:25.204Z,4.08
2017-12-29T15:31:47.433Z,4.02
2017-12-29T15:33:09.368Z,3.97
2017-12-29T15:34:31.546Z,4
2017-12-29T15:35:53.250Z,4
2017-12-29T15:37:15.136Z,4.02
2017-12-29T15:38:37.094Z,4.05
2017-12-29T15:39:59.249Z,3.97
2017-12-29T15:41:21.420Z,3.9
2017-12-29T15:42:43.391Z,3.84
2017-12-29T15:44:05.299Z,3.86
2017-12-29T15:45:27.224Z,3.87
2017-12-29T15:46:48.847Z,3.75
2017-12-29T15:48:10.467Z,3.83
2017-12-29T15:49:32.635Z,3.78
2017-12-29T15:50:54.571Z,3.72
2017-12-29T15:52:15.920Z,3.66
2017-12-29T15:53:37.843Z,3.69
2017-12-29T15:55:00.121Z,3.69
2017-12-29T15:56:21.980Z,3.62
2017-12-29T15:57:44.154Z,3.65
2017-12-29T15:59:06.125Z,3.61
2017-12-29T16:00:28.260Z,3.62
2017-12-29T16:01:50.134Z,3.62
2017-12-29T16:03:11.794Z,3.65
2017-12-29T16:04:33.740Z,3.62
2017-12-29T16:05:55.927Z,3.7
2017-12-29T16:07:17.585Z,3.62
2017-12-29T16:08:39.470Z,3.66
2017-12-29T16:10:01.377Z,3.57
2017-12-29T16:11:23.365Z,3.62
2017-12-29T16:12:45.596Z,3.6
2017-12-29T16:14:08.014Z,3.62
2017-12-29T16:15:30.157Z,3.68
2017-12-29T16:16:52.105Z,3.7
2017-12-29T16:18:13.993Z,3.69
2017-12-29T16:19:36.006Z,3.58
2017-12-29T16:20:57.618Z,3.6
2017-12-29T16:22:19.486Z,3.62
2017-12-29T16:23:41.468Z,3.69
2017-12-29T16:25:03.226Z,3.7
2017-12-29T16:26:25.154Z,3.75
2017-12-29T16:27:47.104Z,3.79
2017-12-29T16:29:09.023Z,3.83
2017-12-29T16:30:31.159Z,3.87
2017-12-29T16:31:52.781Z,3.91
2017-12-29T16:33:14.903Z,3.86
2017-12-29T16:34:36.545Z,3.9
2017-12-29T16:35:58.676Z,3.96
2017-12-29T16:37:20.836Z,3.94
2017-12-29T16:38:43.002Z,3.93
2017-12-29T16:40:05.153Z,4
2017-12-29T16:41:26.756Z,3.98
2017-12-29T16:42:48.643Z,3.96
2017-12-29T16:44:10.679Z,4.05
2017-12-29T16:45:32.802Z,3.91
2017-12-29T16:46:54.988Z,3.93
2017-12-29T16:48:16.334Z,4.05
2017-12-29T16:49:38.238Z,4.02
2017-12-29T16:51:00.385Z,4.05
2017-12-29T16:52:22.819Z,4.08
2017-12-29T16:53:44.696Z,4.05
2017-12-29T16:55:06.555Z,4.06
2017-12-29T16:56:27.920Z,4.09
2017-12-29T16:57:49.537Z,4.02
2017-12-29T16:59:11.844Z,4.09
2017-12-29T17:00:33.776Z,4.06
2017-12-29T17:01:55.966Z,4.12
2017-12-29T17:03:17.868Z,4.09
2017-12-29T17:04:39.746Z,4.15
2017-12-29T17:06:01.859Z,4.12
2017-12-29T17:07:24.016Z,4.15
2017-12-29T17:08:46.015Z,4.14
2017-12-29T17:10:08.144Z,4.2
2017-12-29T17:11:30.228Z,4.18
2017-12-29T17:12:51.892Z,4.12
2017-12-29T17:14:14.061Z,4.14
2017-12-29T17:15:35.663Z,4.16
2017-12-29T17:16:57.596Z,4.11
2017-12-29T17:18:19.338Z,4.14
2017-12-29T17:19:41.521Z,4.23
2017-12-29T17:21:03.689Z,4.15
2017-12-29T17:22:25.974Z,4.16
2017-12-29T17:23:48.157Z,4.26
2017-12-29T17:25:10.375Z,4.29
2017-12-29T17:26:32.096Z,4.23
2017-12-29T17:27:54.240Z,4.14
2017-12-29T17:29:16.165Z,4.18
2017-12-29T17:30:37.764Z,4.09
2017-12-29T17:31:59.923Z,4.08
2017-12-29T17:33:21.834Z,4.04
2017-12-29T17:34:43.733Z,4.09
2017-12-29T17:36:05.877Z,4.08
2017-12-29T17:37:27.755Z,4
2017-12-29T17:38:49.636Z,4.06
2017-12-29T17:40:11.554Z,4.08
2017-12-29T17:41:33.688Z,4.08
2017-12-29T17:42:55.822Z,4.08
2017-12-29T17:44:17.443Z,4.08
2017-12-29T17:45:39.366Z,4.05
2017-12-29T17:47:01.039Z,4.05
2017-12-29T17:48:23.162Z,4.16
2017-12-29T17:49:45.297Z,4.2
2017-12-29T17:51:07.205Z,4.14
2017-12-29T17:52:28.926Z,4.2
2017-12-29T17:53:51.074Z,4.15
2017-12-29T17:55:13.055Z,4.18
2017-12-29T17:56:35.023Z,4.16
2017-12-29T17:57:56.883Z,4.09
2017-12-29T17:59:18.985Z,3.97
2017-12-29T18:00:40.989Z,3.98
2017-12-29T18:02:03.115Z,3.88
2017-12-29T18:03:25.244Z,3.79
2017-12-29T18:04:47.393Z,3.66
2017-12-29T18:06:09.314Z,3.76
2017-12-29T18:07:30.432Z,3.65
2017-12-29T18:08:51.790Z,3.57
2017-12-29T18:10:13.727Z,3.48
2017-12-29T18:11:35.116Z,3.42
2017-12-29T18:12:57.088Z,3.47
2017-12-29T18:14:19.545Z,3.42
2017-12-29T18:15:41.426Z,3.39